Time;durP1;ratioP1;P1;durP2;ratioP2;P2;SDS_P1;SDS_P2;PMS_P1;PMS_P2;Temp;Humidity;BMP_temperature;BMP_pressure;BME280_temperature;BME280_humidity;BME280_pressure;Samples;Min_cycle;Max_cycle;Signal;HPM_P1;HPM_P2
2021/03/23 00:00:57;;;;;;;37.38;23.85;;;;;;;3.73;67.25;99934.65;1814686;78;21030;-72
2021/03/23 00:03:30;;;;;;;29.60;21.80;;;;;;;3.75;67.41;99936.72;1774447;80;21519;-72
2021/03/23 00:05:58;;;;;;;29.50;21.87;;;;;;;3.77;67.50;99934.91;1776042;80;20935;-71
2021/03/23 00:08:31;;;;;;;31.65;22.95;;;;;;;3.78;67.62;99943.52;1775995;80;21808;-72
2021/03/23 00:11:05;;;;;;;37.78;24.85;;;;;;;3.76;67.87;99951.39;1775858;80;21018;-72
2021/03/23 00:13:37;;;;;;;31.27;22.00;;;;;;;3.73;68.23;99946.31;1776186;80;24029;-71
2021/03/23 00:16:07;;;;;;;31.07;22.05;;;;;;;3.69;68.48;99949.52;1776122;80;21397;-72
2021/03/23 00:18:36;;;;;;;29.77;21.70;;;;;;;3.67;68.72;99943.55;1775933;80;20939;-70
2021/03/23 00:21:04;;;;;;;27.50;19.92;;;;;;;3.68;69.05;99946.98;1775972;80;21354;-71
2021/03/23 00:23:32;;;;;;;23.87;18.40;;;;;;;3.65;69.45;99957.03;1775929;80;20998;-71
2021/03/23 00:26:00;;;;;;;24.77;18.87;;;;;;;3.63;69.84;99955.41;1745231;82;21081;-70
2021/03/23 00:28:28;;;;;;;32.65;22.05;;;;;;;3.64;69.88;99955.78;1814606;78;20942;-71
2021/03/23 00:30:56;;;;;;;34.13;23.95;;;;;;;3.66;70.14;99945.73;1814633;79;20883;-73
2021/03/23 00:33:24;;;;;;;31.93;21.97;;;;;;;3.71;70.17;99948.13;1814648;78;21806;-71
2021/03/23 00:35:57;;;;;;;32.42;22.60;;;;;;;3.70;70.13;99952.94;1775891;80;21007;-71
2021/03/23 00:38:25;;;;;;;33.35;22.30;;;;;;;3.65;70.29;99951.84;1814737;78;20927;-71
2021/03/23 00:40:55;;;;;;;25.80;19.55;;;;;;;3.61;70.43;99951.58;1817644;78;20931;-71
2021/03/23 00:43:23;;;;;;;24.90;18.98;;;;;;;3.57;70.54;99942.23;1820437;78;21018;-71
2021/03/23 00:45:52;;;;;;;27.45;19.65;;;;;;;3.54;70.82;99948.86;1820525;78;21440;-71
2021/03/23 00:48:20;;;;;;;23.12;18.12;;;;;;;3.49;71.17;99944.30;1820420;78;21535;-72
2021/03/23 00:50:49;;;;;;;24.37;18.70;;;;;;;3.43;71.34;99949.77;1820468;78;21357;-71
2021/03/23 00:53:17;;;;;;;30.95;20.35;;;;;;;3.35;71.41;99949.23;1781680;80;21496;-72
2021/03/23 00:55:46;;;;;;;22.87;18.62;;;;;;;3.26;71.63;99943.96;1750777;81;20942;-71
2021/03/23 00:58:14;;;;;;;25.75;19.17;;;;;;;3.19;71.83;99943.37;1765592;81;21951;-71
2021/03/23 01:00:42;;;;;;;24.80;19.02;;;;;;;3.12;72.02;99940.64;1750736;82;21002;-72
2021/03/23 01:03:10;;;;;;;29.60;22.93;;;;;;;3.06;72.32;99936.53;1765494;81;21077;-72
2021/03/23 01:05:39;;;;;;;33.42;23.18;;;;;;;3.03;72.90;99936.67;1750763;81;20947;-71
2021/03/23 01:08:07;;;;;;;29.40;22.42;;;;;;;3.05;73.11;99939.20;1765577;81;20930;-71
2021/03/23 01:10:35;;;;;;;27.77;21.20;;;;;;;3.09;73.05;99939.45;1750837;81;21771;-72
2021/03/23 01:13:04;;;;;;;33.70;24.72;;;;;;;3.10;72.96;99934.22;1765525;81;20970;-71
2021/03/23 01:15:33;;;;;;;28.42;19.48;;;;;;;3.13;73.03;99938.42;1750765;81;20975;-70
2021/03/23 01:18:01;;;;;;;24.70;17.65;;;;;;;3.13;73.22;99938.89;1750710;81;21053;-71
2021/03/23 01:20:30;;;;;;;22.42;17.10;;;;;;;3.14;73.30;99932.81;1749165;81;21400;-71
2021/03/23 01:22:59;;;;;;;25.70;17.73;;;;;;;3.17;73.27;99933.98;1750808;81;21427;-71
2021/03/23 01:25:28;;;;;;;20.92;16.85;;;;;;;3.17;73.10;99932.22;1765448;81;20907;-72
2021/03/23 01:27:56;;;;;;;24.37;18.67;;;;;;;3.14;72.97;99929.77;1750900;82;21396;-71
2021/03/23 01:30:26;;;;;;;21.93;16.95;;;;;;;3.15;72.80;99931.44;1765548;81;21388;-73
2021/03/23 01:32:55;;;;;;;20.72;17.32;;;;;;;3.15;72.63;99931.90;1750909;81;21463;-72
2021/03/23 01:35:24;;;;;;;22.40;17.10;;;;;;;3.13;72.68;99934.55;1765573;81;21900;-72
2021/03/23 01:37:53;;;;;;;21.50;18.15;;;;;;;3.10;72.72;99932.92;1750787;81;21559;-72
2021/03/23 01:40:25;;;;;;;23.25;18.85;;;;;;;3.08;72.76;99932.14;1764766;81;20974;-72
2021/03/23 01:43:00;;;;;;;25.60;18.73;;;;;;;3.08;72.88;99930.84;1731098;82;21435;-72
2021/03/23 01:45:33;;;;;;;22.75;19.17;;;;;;;3.06;72.78;99927.92;1742313;82;21479;-72
2021/03/23 01:48:07;;;;;;;24.57;18.67;;;;;;;3.03;72.79;99928.06;1731038;83;21201;-72
2021/03/23 01:50:35;;;;;;;24.55;18.77;;;;;;;2.99;72.81;99924.74;1742381;82;20995;-73
2021/03/23 01:55:23;;;;;;;27.32;19.73;;;;;;;2.99;72.92;99931.22;1813508;77;22536;-71
2021/03/23 01:57:51;;;;;;;34.23;23.67;;;;;;;2.93;73.11;99928.03;1784095;80;20978;-73
2021/03/23 02:00:20;;;;;;;33.33;26.12;;;;;;;2.92;73.32;99927.19;1784139;80;21445;-70
2021/03/23 02:02:49;;;;;;;30.92;23.65;;;;;;;2.92;73.49;99925.06;1776823;80;20982;-72
2021/03/23 02:05:25;;;;;;;30.02;21.25;;;;;;;2.92;73.50;99923.31;1753143;80;21338;-71
2021/03/23 02:07:55;;;;;;;29.25;20.92;;;;;;;2.94;73.41;99928.44;1753093;81;21496;-72
2021/03/23 02:10:24;;;;;;;29.57;21.12;;;;;;;2.90;73.33;99923.81;1753133;81;21018;-73
2021/03/23 02:12:52;;;;;;;24.60;19.07;;;;;;;2.87;73.32;99913.13;1753143;81;21416;-71
2021/03/23 02:15:23;;;;;;;24.20;19.70;;;;;;;2.89;73.34;99920.39;1753008;81;21025;-71
2021/03/23 02:18:11;;;;;;;25.52;19.07;;;;;;;2.88;73.35;99920.44;1753179;81;21009;-72
2021/03/23 02:21:16;;;;;;;24.10;18.67;;;;;;;2.81;73.59;99923.73;1753091;80;21001;-71
2021/03/23 02:23:51;;;;;;;26.20;19.00;;;;;;;2.72;73.91;99922.80;1753225;81;20895;-72
2021/03/23 02:26:22;;;;;;;;;;;;;;;2.63;73.95;99922.70;1755626;81;21365;-71
2021/03/23 02:28:57;;;;;;;22.95;17.52;;;;;;;2.58;74.05;99920.75;1725508;81;20156;-71
2021/03/23 02:31:35;;;;;;;29.70;22.30;;;;;;;2.51;74.18;99927.03;1753037;81;20938;-71
2021/03/23 02:34:06;;;;;;;29.45;22.27;;;;;;;2.47;74.39;99921.61;1752995;81;21049;-72
2021/03/23 02:36:35;;;;;;;26.93;20.43;;;;;;;2.46;74.27;99921.20;1753112;81;20927;-72
2021/03/23 02:39:05;;;;;;;22.95;18.37;;;;;;;2.43;74.59;99922.16;1753148;81;21432;-71
2021/03/23 02:41:34;;;;;;;22.70;18.42;;;;;;;2.45;74.78;99915.64;1725914;81;20978;-71
2021/03/23 02:44:04;;;;;;;24.77;18.57;;;;;;;2.49;74.95;99915.47;1753034;81;21005;-71
2021/03/23 02:46:33;;;;;;;24.02;19.57;;;;;;;2.56;74.87;99913.95;1752994;81;21041;-71
2021/03/23 02:49:04;;;;;;;23.77;18.62;;;;;;;2.61;74.72;99908.97;1753151;81;21570;-70
2021/03/23 02:51:32;;;;;;;25.27;19.52;;;;;;;2.64;74.56;99908.84;1753065;80;21362;-72
2021/03/23 02:54:01;;;;;;;28.80;21.42;;;;;;;2.62;74.48;99902.91;1751407;81;21025;-72
2021/03/23 02:56:29;;;;;;;33.02;24.30;;;;;;;2.62;74.44;99909.37;1748229;80;20946;-71
2021/03/23 02:58:58;;;;;;;34.53;22.87;;;;;;;2.61;74.45;99899.08;1748217;82;20943;-72
2021/03/23 03:01:26;;;;;;;28.77;21.27;;;;;;;2.60;74.53;99893.06;1748230;82;20960;-72
2021/03/23 03:03:55;;;;;;;42.73;25.62;;;;;;;2.57;74.66;99894.91;1748342;82;22304;-73
2021/03/23 03:06:24;;;;;;;39.45;26.35;;;;;;;2.53;74.88;99890.75;1747682;80;21041;-73
2021/03/23 03:08:52;;;;;;;39.65;27.22;;;;;;;2.49;74.85;99899.94;1747710;82;21041;-72
2021/03/23 03:11:21;;;;;;;40.55;28.90;;;;;;;2.45;75.02;99893.66;1747728;82;21022;-73
2021/03/23 03:13:50;;;;;;;38.53;26.73;;;;;;;2.40;75.09;99896.42;1747624;82;21065;-72
2021/03/23 03:16:18;;;;;;;38.35;26.25;;;;;;;2.36;75.31;99897.43;1747686;82;21809;-72
2021/03/23 03:18:47;;;;;;;35.65;27.75;;;;;;;2.38;75.42;99897.34;1747662;82;21388;-72
2021/03/23 03:21:16;;;;;;;34.23;25.23;;;;;;;2.40;75.49;99900.30;1747616;80;20939;-72
2021/03/23 03:23:45;;;;;;;30.50;23.15;;;;;;;2.42;75.51;99896.34;1747673;82;20938;-72
2021/03/23 03:26:14;;;;;;;30.97;23.57;;;;;;;2.39;75.75;99899.89;1723086;82;21416;-72
2021/03/23 03:28:50;;;;;;;38.42;25.85;;;;;;;2.38;75.73;99896.05;1747677;82;21204;-72
2021/03/23 03:31:13;;;;;;;34.00;24.32;;;;;;;2.38;75.88;99897.34;1746749;82;20978;-73
2021/03/23 03:33:41;;;;;;;31.75;25.05;;;;;;;2.37;75.84;99896.97;1747635;82;21045;-72
2021/03/23 03:36:11;;;;;;;29.50;23.40;;;;;;;2.34;75.81;99894.51;1746773;82;21554;-73
2021/03/23 03:38:40;;;;;;;30.62;23.38;;;;;;;2.31;75.89;99898.48;1747708;81;21577;-72
2021/03/23 03:41:08;;;;;;;31.42;22.93;;;;;;;2.27;75.85;99902.50;1747650;82;21366;-73
2021/03/23 03:43:36;;;;;;;24.32;19.00;;;;;;;2.27;75.94;99906.83;1747543;82;20962;-73
2021/03/23 03:46:04;;;;;;;28.57;21.65;;;;;;;2.26;76.04;99903.84;1747634;80;20947;-72
2021/03/23 03:48:33;;;;;;;27.27;21.30;;;;;;;2.22;76.22;99904.84;1747658;82;21006;-72
2021/03/23 03:51:01;;;;;;;24.87;19.02;;;;;;;2.17;76.37;99914.07;1747696;81;20954;-71
2021/03/23 03:53:31;;;;;;;24.25;18.62;;;;;;;2.13;76.30;99912.95;1747586;82;21005;-71
2021/03/23 03:55:59;;;;;;;23.98;18.67;;;;;;;2.07;76.29;99912.73;1747467;82;21037;-72
2021/03/23 03:58:29;;;;;;;22.07;17.77;;;;;;;2.01;76.40;99917.67;1747640;80;21053;-71
2021/03/23 04:00:57;;;;;;;21.17;16.90;;;;;;;1.98;76.68;99912.63;1747611;82;20947;-72
2021/03/23 04:03:28;;;;;;;20.23;16.00;;;;;;;2.03;76.45;99921.50;1747750;82;20946;-72
2021/03/23 04:05:57;;;;;;;16.25;13.60;;;;;;;2.08;76.16;99926.05;1747691;80;21194;-71
2021/03/23 04:08:29;;;;;;;17.67;13.72;;;;;;;2.09;75.94;99929.05;1747673;82;21493;-71
2021/03/23 04:11:01;;;;;;;18.97;13.40;;;;;;;2.08;75.74;99935.09;1747868;82;20946;-72
2021/03/23 04:13:29;;;;;;;21.77;14.35;;;;;;;2.06;75.63;99940.78;1747604;82;21236;-71
2021/03/23 04:15:57;;;;;;;20.68;15.00;;;;;;;2.02;75.67;99941.78;1747660;81;20954;-71
2021/03/23 04:18:26;;;;;;;17.62;14.07;;;;;;;2.02;75.69;99950.41;1747684;80;21368;-71
2021/03/23 04:20:56;;;;;;;21.97;14.73;;;;;;;2.02;75.61;99947.82;1747627;81;20990;-73
2021/03/23 04:23:31;;;;;;;18.07;12.93;;;;;;;2.05;75.54;99952.03;1747725;82;21380;-74
2021/03/23 04:26:01;;;;;;;17.70;12.80;;;;;;;2.11;75.35;99948.37;1747658;81;20959;-72
2021/03/23 04:28:29;;;;;;;15.18;12.13;;;;;;;2.13;75.24;99956.45;1747700;82;20959;-73
2021/03/23 04:30:57;;;;;;;15.00;12.53;;;;;;;2.10;75.30;99958.33;1747645;80;21165;-73
2021/03/23 04:33:27;;;;;;;16.60;13.10;;;;;;;2.07;75.43;99958.00;1747589;82;20955;-73
2021/03/23 04:36:00;;;;;;;17.65;14.00;;;;;;;2.06;75.56;99958.42;1748048;82;21397;-73
2021/03/23 04:38:32;;;;;;;16.05;13.58;;;;;;;2.08;75.39;99959.21;1748230;82;20954;-73
2021/03/23 04:41:04;;;;;;;16.52;13.85;;;;;;;2.05;75.30;99965.80;1748110;82;21480;-72
2021/03/23 04:43:36;;;;;;;15.32;12.50;;;;;;;2.02;75.45;99969.80;1747712;82;21380;-73
2021/03/23 04:46:05;;;;;;;16.17;13.62;;;;;;;2.05;75.49;99972.27;1747688;80;20927;-72
2021/03/23 04:48:33;;;;;;;17.27;12.68;;;;;;;2.07;75.45;99972.22;1747591;82;21002;-72
2021/03/23 04:51:03;;;;;;;15.75;12.85;;;;;;;2.08;75.60;99978.61;1747515;80;21050;-71
2021/03/23 04:53:35;;;;;;;16.80;13.20;;;;;;;2.09;75.66;99985.94;1747560;82;20998;-71
2021/03/23 04:56:04;;;;;;;18.92;14.90;;;;;;;2.08;75.63;99983.78;1747505;80;21205;-71
2021/03/23 04:58:32;;;;;;;20.50;16.42;;;;;;;2.06;75.65;99985.58;1747628;82;21690;-72
2021/03/23 05:01:00;;;;;;;19.67;15.60;;;;;;;2.07;75.88;99985.98;1747563;81;21069;-71
2021/03/23 05:03:32;;;;;;;18.60;15.28;;;;;;;2.10;75.76;99990.20;1747716;82;21488;-73
2021/03/23 05:06:08;;;;;;;18.55;14.78;;;;;;;2.13;75.62;99991.83;1747771;82;21403;-73
2021/03/23 05:08:40;;;;;;;18.85;15.70;;;;;;;2.15;75.58;99988.74;1747655;82;21370;-74
2021/03/23 05:11:10;;;;;;;16.75;14.40;;;;;;;2.18;75.54;99989.92;1747559;82;20962;-71
2021/03/23 05:13:38;;;;;;;18.25;14.33;;;;;;;2.19;75.62;99988.58;1747596;82;21428;-73
2021/03/23 05:16:07;;;;;;;18.15;14.83;;;;;;;2.19;75.67;99991.63;1747563;82;20943;-74
2021/03/23 05:18:36;;;;;;;25.10;15.88;;;;;;;2.18;75.78;99995.09;1747635;82;21006;-72
2021/03/23 05:21:04;;;;;;;21.77;16.85;;;;;;;2.13;75.86;99997.84;1747596;82;21754;-72
2021/03/23 05:23:32;;;;;;;20.10;16.90;;;;;;;2.16;75.88;100001.63;1747435;82;20997;-72
2021/03/23 05:26:01;;;;;;;21.97;16.73;;;;;;;2.22;75.64;100005.73;1747514;80;20998;-73
2021/03/23 05:28:29;;;;;;;22.58;15.75;;;;;;;2.26;75.57;100002.97;1747627;82;21022;-72
2021/03/23 05:30:57;;;;;;;22.93;17.02;;;;;;;2.33;75.35;100005.34;1747547;81;21396;-72
2021/03/23 05:33:25;;;;;;;20.90;16.62;;;;;;;2.33;75.33;100009.23;1747549;82;21445;-72
2021/03/23 05:35:57;;;;;;;19.75;15.80;;;;;;;2.34;75.25;100005.77;1747481;82;21006;-73
2021/03/23 05:38:26;;;;;;;20.23;17.15;;;;;;;2.35;75.19;100009.56;1747597;81;21495;-74
2021/03/23 05:41:06;;;;;;;20.88;16.35;;;;;;;2.37;74.99;100013.40;1747577;82;21364;-72
2021/03/23 05:43:52;;;;;;;23.55;17.55;;;;;;;2.38;74.87;100015.94;1747519;80;20946;-73
2021/03/23 05:46:35;;;;;;;24.60;19.42;;;;;;;2.39;74.86;100021.50;1747622;82;21371;-73
2021/03/23 05:49:33;;;;;;;23.85;18.77;;;;;;;2.42;74.83;100017.95;1747468;82;20966;-72
2021/03/23 05:52:41;;;;;;;24.82;18.65;;;;;;;2.48;74.80;100021.16;1747605;82;21006;-73
2021/03/23 05:55:41;;;;;;;25.12;19.35;;;;;;;2.53;74.37;100027.45;1744956;82;21004;-73
2021/03/23 05:58:25;;;;;;;22.70;18.45;;;;;;;2.56;74.31;100026.53;1739443;82;20939;-75
2021/03/23 06:01:12;;;;;;;23.42;17.87;;;;;;;2.57;74.42;100034.67;1739343;82;21083;-73
2021/03/23 06:03:45;;;;;;;24.87;20.35;;;;;;;2.60;74.20;100028.08;1714007;82;20971;-74
2021/03/23 06:06:39;;;;;;;24.70;18.10;;;;;;;2.61;73.95;100034.50;1739363;82;21041;-72
2021/03/23 06:09:13;;;;;;;25.68;18.50;;;;;;;2.64;73.85;100029.20;1739315;82;20942;-73
2021/03/23 06:11:47;;;;;;;24.32;19.12;;;;;;;2.62;73.73;100033.63;1739485;82;21030;-75
2021/03/23 06:14:42;;;;;;;24.95;18.00;;;;;;;2.65;73.44;100030.07;1739458;82;22345;-74
2021/03/23 06:17:32;;;;;;;18.85;16.23;;;;;;;2.65;73.37;100039.12;1739317;82;21074;-73
2021/03/23 06:20:45;;;;;;;20.97;16.02;;;;;;;2.64;73.46;100036.13;1739300;81;21074;-73
2021/03/23 06:23:31;;;;;;;23.75;18.25;;;;;;;2.63;73.66;100035.30;1739321;82;20962;-72
2021/03/23 06:26:20;;;;;;;20.70;16.55;;;;;;;2.70;73.53;100030.28;1739328;82;21473;-72
2021/03/23 06:29:08;;;;;;;22.37;17.42;;;;;;;2.76;73.14;100035.70;1739372;82;21737;-72
2021/03/23 06:32:07;;;;;;;21.45;16.32;;;;;;;2.78;73.13;100039.08;1739109;82;20970;-72
2021/03/23 06:34:36;;;;;;;21.55;15.58;;;;;;;2.81;73.11;100045.88;1739379;82;21539;-72
2021/03/23 06:37:31;;;;;;;18.52;14.70;;;;;;;2.86;72.64;100048.67;1739321;82;21492;-72
2021/03/23 06:40:03;;;;;;;18.37;14.40;;;;;;;2.90;72.61;100046.82;1739582;82;20994;-73
2021/03/23 06:42:44;;;;;;;18.87;15.00;;;;;;;2.95;72.34;100050.53;1739481;82;21373;-73
2021/03/23 06:45:27;;;;;;;19.65;14.65;;;;;;;2.98;71.99;100052.56;1739517;81;21520;-72
2021/03/23 06:47:58;;;;;;;18.27;13.90;;;;;;;3.05;71.81;100054.02;1739385;82;20939;-73
2021/03/23 06:50:32;;;;;;;18.73;14.47;;;;;;;3.10;71.29;100057.72;1739474;82;20959;-74
2021/03/23 06:53:13;;;;;;;17.62;13.70;;;;;;;3.08;70.84;100058.23;1739493;82;21067;-73
2021/03/23 06:55:47;;;;;;;20.12;13.68;;;;;;;3.06;70.73;100060.87;1742892;80;22356;-72
2021/03/23 06:58:35;;;;;;;17.37;13.75;;;;;;;3.01;70.48;100060.66;1747679;82;20954;-73
2021/03/23 07:01:14;;;;;;;14.68;12.40;;;;;;;3.02;70.78;100064.93;1747739;81;21006;-71
2021/03/23 07:03:47;;;;;;;14.03;11.48;;;;;;;3.05;70.37;100060.95;1747757;82;20911;-74
2021/03/23 07:06:31;;;;;;;15.60;10.43;;;;;;;3.07;70.28;100061.73;1747831;82;21455;-73
2021/03/23 07:09:22;;;;;;;;;;;;;;;3.07;70.11;100057.85;1750227;82;21414;-72
2021/03/23 07:12:03;;;;;;;11.65;10.08;;;;;;;3.10;70.05;100071.97;1747637;82;20189;-73
2021/03/23 07:14:40;;;;;;;13.03;8.73;;;;;;;3.12;69.88;100070.17;1747668;82;21018;-73
2021/03/23 07:17:15;;;;;;;11.93;9.10;;;;;;;3.14;69.55;100076.59;1747620;81;20942;-73
2021/03/23 07:20:07;;;;;;;12.15;9.68;;;;;;;3.16;69.49;100076.05;1747624;82;21034;-72
2021/03/23 07:22:47;;;;;;;12.00;9.28;;;;;;;3.17;69.23;100070.83;1747615;80;21262;-72
2021/03/23 07:25:40;;;;;;;9.05;8.05;;;;;;;3.21;68.78;100081.93;1747288;82;20935;-73
2021/03/23 07:28:34;;;;;;;9.45;6.97;;;;;;;3.23;68.53;100083.55;1747601;81;21006;-72
2021/03/23 07:31:31;;;;;;;9.50;7.20;;;;;;;3.24;68.29;100079.20;1747654;82;21010;-74
2021/03/23 07:34:22;;;;;;;13.28;9.10;;;;;;;3.32;68.49;100070.70;1747658;81;21025;-74
2021/03/23 07:37:19;;;;;;;8.08;6.15;;;;;;;3.54;68.68;100068.11;1747696;82;22304;-75
2021/03/23 07:40:04;;;;;;;7.92;5.87;;;;;;;3.80;67.82;100068.36;1747520;82;20958;-75
2021/03/23 07:42:38;;;;;;;7.03;5.40;;;;;;;3.93;65.30;100059.16;1747653;82;21041;-78
2021/03/23 07:45:28;;;;;;;6.90;6.17;;;;;;;3.99;64.93;100060.64;1747845;80;20899;-82
2021/03/23 07:48:11;;;;;;;7.47;5.33;;;;;;;4.05;64.50;100068.64;1747745;82;21101;-78
2021/03/23 07:50:43;;;;;;;8.30;4.80;;;;;;;4.18;65.08;100064.62;1747910;82;22280;-80
2021/03/23 07:53:32;;;;;;;6.12;4.40;;;;;;;4.35;64.89;100076.39;1747799;82;21030;-82
2021/03/23 07:56:08;;;;;;;4.78;3.70;;;;;;;4.52;64.00;100070.94;1744269;80;20947;-80
2021/03/23 07:58:53;;;;;;;5.45;3.90;;;;;;;4.72;62.90;100077.39;1739436;82;21021;-77
2021/03/23 08:01:36;;;;;;;4.67;3.20;;;;;;;4.91;61.95;100070.92;1738761;82;21061;-81
2021/03/23 08:04:13;;;;;;;3.60;2.52;;;;;;;5.05;58.55;100070.75;1738196;81;21631;-82
2021/03/23 08:07:08;;;;;;;3.20;2.70;;;;;;;5.09;57.39;100070.97;1739168;82;21156;-82
2021/03/23 08:10:33;;;;;;;2.65;2.25;;;;;;;5.13;56.40;100069.45;1738739;82;20962;-80
2021/03/23 08:13:10;;;;;;;4.10;2.30;;;;;;;5.18;55.41;100059.70;1739402;81;21034;-78
2021/03/23 08:16:01;;;;;;;5.05;2.30;;;;;;;5.15;54.48;100064.20;1739454;82;20974;-80
2021/03/23 08:19:17;;;;;;;3.00;2.25;;;;;;;5.32;53.53;100062.95;1739492;81;21156;-79
2021/03/23 08:22:15;;;;;;;3.00;2.25;;;;;;;5.88;53.95;100059.82;1739309;82;20935;-78
2021/03/23 08:24:57;;;;;;;3.02;1.90;;;;;;;6.90;50.47;100052.86;1707609;82;21085;-81
2021/03/23 08:28:02;;;;;;;2.60;2.00;;;;;;;7.78;48.93;100064.50;1739477;82;20962;-79
2021/03/23 08:31:19;;;;;;;1.67;1.47;;;;;;;8.47;46.80;100054.37;1739703;82;21022;-73
2021/03/23 08:34:19;;;;;;;3.50;2.47;;;;;;;9.05;45.05;100061.28;1739849;82;21196;-71
2021/03/23 08:37:19;;;;;;;2.92;1.15;;;;;;;9.29;42.48;100052.35;1739125;82;21607;-73
2021/03/23 08:40:13;;;;;;;2.37;1.12;;;;;;;9.67;42.89;100059.95;1738088;82;20970;-74
2021/03/23 08:42:45;;;;;;;2.75;1.40;;;;;;;10.30;40.96;100050.10;1739369;82;21006;-74
2021/03/23 08:45:33;;;;;;;2.92;1.20;;;;;;;10.86;39.16;100043.66;1739446;82;21045;-74
2021/03/23 08:48:08;;;;;;;2.67;1.20;;;;;;;11.04;38.10;100030.55;1739400;82;21366;-74
2021/03/23 08:50:40;;;;;;;2.17;0.90;;;;;;;11.16;37.07;100033.61;1726193;82;21519;-74
2021/03/23 08:53:34;;;;;;;1.37;0.70;;;;;;;10.97;35.23;100048.98;1740587;82;21062;-73
2021/03/23 08:56:07;;;;;;;1.17;0.78;;;;;;;10.51;35.60;100046.47;1741685;82;21152;-74
2021/03/23 08:58:46;;;;;;;2.87;0.60;;;;;;;10.49;35.78;100052.77;1747527;82;20946;-75
2021/03/23 09:01:39;;;;;;;1.85;0.72;;;;;;;10.66;36.52;100048.99;1747578;81;21193;-78
2021/03/23 09:04:16;;;;;;;3.10;0.80;;;;;;;10.70;35.77;100061.78;1747654;82;21673;-80
2021/03/23 09:06:55;;;;;;;2.12;0.68;;;;;;;10.54;34.28;100059.38;1747670;82;21313;-81
2021/03/23 09:09:37;;;;;;;2.20;0.78;;;;;;;10.28;34.32;100062.44;1747583;81;21003;-78
2021/03/23 09:12:42;;;;;;;1.35;1.07;;;;;;;10.24;34.14;100050.48;1747612;82;20902;-81
2021/03/23 09:15:24;;;;;;;1.12;0.50;;;;;;;10.54;35.37;100046.76;1747590;81;21200;-84
2021/03/23 09:18:17;;;;;;;2.00;0.62;;;;;;;10.75;34.10;100049.17;1747949;81;21460;-82
2021/03/23 09:20:52;;;;;;;1.47;1.02;;;;;;;10.64;34.17;100044.32;1747871;81;20934;-81
2021/03/23 09:23:26;;;;;;;3.80;1.80;;;;;;;10.11;33.44;100033.43;1748000;82;21052;-82
2021/03/23 09:26:00;;;;;;;1.00;0.60;;;;;;;9.70;34.29;100055.84;1747747;82;21085;-80
2021/03/23 09:28:44;;;;;;;1.60;0.80;;;;;;;9.84;34.54;100057.08;1747630;81;21380;-79
2021/03/23 09:31:23;;;;;;;0.98;0.70;;;;;;;10.28;33.57;100053.74;1747376;81;21329;-81
2021/03/23 09:33:54;;;;;;;5.35;0.72;;;;;;;10.73;33.03;100042.37;1747564;81;21038;-79
2021/03/23 09:36:37;;;;;;;1.57;0.53;;;;;;;11.12;33.37;100033.95;1747258;82;21029;-79
2021/03/23 09:39:23;;;;;;;2.90;0.60;;;;;;;11.28;33.15;100042.38;1747622;82;20986;-80
2021/03/23 09:42:06;;;;;;;0.80;0.40;;;;;;;11.11;31.91;100055.88;1747567;82;21611;-79
2021/03/23 09:44:42;;;;;;;1.47;0.60;;;;;;;10.77;32.47;100038.59;1744943;82;21005;-81
2021/03/23 09:47:30;;;;;;;1.00;0.88;;;;;;;10.41;32.95;100045.92;1722742;82;20946;-74
2021/03/23 09:50:37;;;;;;;2.15;0.95;;;;;;;9.90;33.02;100045.37;1889951;76;23175;-73
2021/03/23 09:53:27;;;;;;;2.85;0.82;;;;;;;9.29;32.86;100045.81;1861061;77;20949;-76
2021/03/23 09:56:13;;;;;;;3.40;1.02;;;;;;;9.15;33.92;100043.22;1823151;78;21314;-74
2021/03/23 09:58:41;;;;;;;3.20;0.78;;;;;;;9.69;34.29;100029.28;1823251;78;26883;-82
2021/03/23 10:01:21;;;;;;;0.65;0.40;;;;;;;10.51;32.62;100020.25;1823326;78;20940;-81
2021/03/23 10:03:51;;;;;;;0.82;0.55;;;;;;;11.09;31.31;100023.66;1823702;78;21004;-77
2021/03/23 10:06:27;;;;;;;1.42;0.50;;;;;;;11.22;30.63;100017.88;1823215;78;21035;-73
2021/03/23 10:09:06;;;;;;;1.30;0.50;;;;;;;11.13;29.98;100036.44;1823204;78;22296;-74
2021/03/23 10:11:44;;;;;;;2.98;1.10;;;;;;;10.94;29.02;100037.41;1823069;78;21039;-74
2021/03/23 10:14:26;;;;;;;1.75;0.90;;;;;;;10.67;30.29;100037.54;1791236;78;20936;-73
2021/03/23 10:17:26;;;;;;;1.10;0.60;;;;;;;10.55;30.33;100041.38;1819471;78;20909;-75
2021/03/23 10:19:59;;;;;;;1.77;0.40;;;;;;;10.62;31.14;100050.97;1814907;78;20912;-76
2021/03/23 10:22:31;;;;;;;3.05;0.98;;;;;;;10.63;29.48;100044.80;1823121;78;21368;-74
2021/03/23 10:25:00;;;;;;;0.65;0.47;;;;;;;10.35;29.04;100035.38;1823077;78;21011;-75
2021/03/23 10:27:35;;;;;;;0.98;0.40;;;;;;;10.05;29.83;100032.56;1823139;78;20908;-74
2021/03/23 10:30:19;;;;;;;1.98;1.50;;;;;;;9.68;29.47;100042.02;1823057;78;20901;-75
2021/03/23 10:32:51;;;;;;;1.57;0.70;;;;;;;9.32;30.44;100036.92;1823293;78;21027;-74
2021/03/23 10:35:43;;;;;;;1.55;1.00;;;;;;;9.11;30.67;100041.28;1822817;78;21336;-73
2021/03/23 10:38:25;;;;;;;3.90;0.70;;;;;;;8.96;30.86;100042.69;1823062;78;21034;-75
2021/03/23 10:41:01;;;;;;;0.90;0.50;;;;;;;8.63;31.71;100043.86;1821334;78;20951;-75
2021/03/23 10:43:37;;;;;;;1.55;0.40;;;;;;;8.39;32.00;100048.77;1811978;78;21000;-74
2021/03/23 10:46:28;;;;;;;0.57;0.45;;;;;;;8.30;32.46;100043.63;1823081;78;21351;-75
2021/03/23 10:49:26;;;;;;;0.68;0.30;;;;;;;8.31;33.64;100043.98;1824378;78;21212;-75
2021/03/23 10:52:19;;;;;;;1.95;0.68;;;;;;;8.18;32.14;100036.06;1829613;78;20943;-76
2021/03/23 10:54:48;;;;;;;1.02;0.53;;;;;;;7.96;33.19;100048.67;1832382;78;21039;-75
2021/03/23 10:57:38;;;;;;;1.90;0.90;;;;;;;7.73;32.63;100040.41;1832375;78;20920;-74
2021/03/23 11:00:28;;;;;;;0.33;0.20;;;;;;;7.72;32.67;100034.00;1815617;79;21038;-75
2021/03/23 11:03:16;;;;;;;0.70;0.30;;;;;;;7.73;31.81;100029.14;1815308;79;21805;-75
2021/03/23 11:05:49;;;;;;;0.70;0.53;;;;;;;7.55;31.50;100026.66;1808357;79;20974;-74
2021/03/23 11:08:18;;;;;;;0.88;0.65;;;;;;;7.18;32.29;100031.34;1815295;79;21029;-75
2021/03/23 11:10:48;;;;;;;0.93;0.60;;;;;;;6.97;32.82;100031.21;1815374;79;21499;-76
2021/03/23 11:13:17;;;;;;;1.55;0.50;;;;;;;6.87;34.28;100016.98;1815402;79;21476;-73
2021/03/23 11:15:48;;;;;;;2.87;0.53;;;;;;;6.81;33.86;100031.20;1815334;79;21550;-74
2021/03/23 11:18:23;;;;;;;0.93;0.40;;;;;;;6.80;33.55;100024.30;1788791;79;20970;-76
2021/03/23 11:20:52;;;;;;;2.15;0.78;;;;;;;6.87;33.61;100033.48;1815449;79;21352;-74
2021/03/23 11:23:40;;;;;;;2.17;0.55;;;;;;;7.06;32.77;100032.84;1815482;79;21527;-75
2021/03/23 11:26:15;;;;;;;1.22;0.53;;;;;;;7.19;32.78;100018.67;1831845;78;21453;-75
2021/03/23 11:28:45;;;;;;;0.88;0.25;;;;;;;7.56;31.70;100021.83;1831533;78;21043;-74
2021/03/23 11:31:16;;;;;;;1.50;0.50;;;;;;;7.91;32.26;100018.09;1831774;78;20900;-73
2021/03/23 11:33:46;;;;;;;1.67;0.80;;;;;;;8.12;31.97;100016.00;1831078;77;21003;-74
2021/03/23 11:36:14;;;;;;;2.10;0.70;;;;;;;8.07;32.31;100012.33;1831762;78;20912;-76
2021/03/23 11:38:42;;;;;;;2.22;0.95;;;;;;;7.95;32.58;100019.59;1831866;78;20952;-77
2021/03/23 11:41:22;;;;;;;1.22;0.72;;;;;;;7.83;32.21;100022.00;1831874;78;21127;-76
2021/03/23 11:43:53;;;;;;;1.07;0.37;;;;;;;7.73;32.66;100016.92;1830897;78;21047;-77
2021/03/23 11:46:28;;;;;;;0.93;0.53;;;;;;;7.66;33.02;100020.82;1831766;78;21007;-76
2021/03/23 11:49:06;;;;;;;0.72;0.50;;;;;;;7.69;33.41;100024.55;1828844;77;21031;-77
2021/03/23 11:51:35;;;;;;;2.17;0.50;;;;;;;7.76;33.69;100023.29;1822330;78;21015;-77
2021/03/23 11:54:26;;;;;;;1.67;0.50;;;;;;;7.85;33.83;100012.31;1796695;78;20936;-77
2021/03/23 11:56:55;;;;;;;1.77;0.40;;;;;;;7.76;33.87;100019.81;1823216;78;21825;-75
2021/03/23 11:59:25;;;;;;;1.87;0.70;;;;;;;7.38;34.42;100022.41;1823004;78;20940;-76
2021/03/23 12:01:53;;;;;;;2.92;0.80;;;;;;;7.13;35.35;100008.58;1822410;78;20932;-75
2021/03/23 12:04:23;;;;;;;1.75;0.98;;;;;;;7.02;35.39;100014.84;1822496;78;20944;-77
2021/03/23 12:07:17;;;;;;;2.25;1.77;;;;;;;6.97;35.34;100012.49;1822518;78;22384;-77
2021/03/23 12:10:05;;;;;;;2.25;0.70;;;;;;;6.94;35.20;100006.63;1822423;78;20944;-78
2021/03/23 12:13:01;;;;;;;1.65;0.70;;;;;;;6.78;35.33;100008.77;1821440;78;20968;-75